Time;durP1;ratioP1;P1;durP2;ratioP2;P2;SDS_P1;SDS_P2;PMS_P1;PMS_P2;Temp;Humidity;BMP_temperature;BMP_pressure;BME280_temperature;BME280_humidity;BME280_pressure;Samples;Min_cycle;Max_cycle;Signal;HPM_P1;HPM_P2
2023/12/22 00:00:24;;;;;;;27.35;6.32;;;6.90;99.90;;;;;;5076378;28;20052;-61
2023/12/22 00:02:49;;;;;;;48.22;7.28;;;7.00;99.90;;;;;;5082426;28;20042;-61
2023/12/22 00:05:15;;;;;;;25.17;5.28;;;7.00;99.90;;;;;;5058011;28;20661;-60
2023/12/22 00:07:41;;;;;;;28.38;4.93;;;7.10;99.90;;;;;;5080225;28;20041;-61
2023/12/22 00:10:07;;;;;;;32.10;5.63;;;7.10;99.90;;;;;;5081326;28;20044;-60
2023/12/22 00:12:32;;;;;;;31.55;6.25;;;7.20;99.90;;;;;;5080005;28;20032;-61
2023/12/22 00:14:58;;;;;;;26.48;5.47;;;7.30;99.90;;;;;;5075789;28;20661;-61
2023/12/22 00:17:24;;;;;;;26.45;5.28;;;7.30;99.90;;;;;;5080097;28;20054;-61
2023/12/22 00:19:49;;;;;;;32.97;6.45;;;7.30;99.90;;;;;;5062365;28;20052;-61
2023/12/22 00:22:15;;;;;;;29.70;6.05;;;7.40;99.90;;;;;;5077266;28;20427;-61
2023/12/22 00:24:41;;;;;;;34.70;5.95;;;7.50;99.90;;;;;;5080226;28;20040;-61
2023/12/22 00:27:06;;;;;;;22.42;4.55;;;7.50;99.90;;;;;;5081074;28;20086;-61
2023/12/22 00:29:35;;;;;;;24.90;4.30;;;7.60;99.90;;;;;;5083716;28;20032;-60
2023/12/22 00:32:01;;;;;;;29.05;5.13;;;7.70;99.90;;;;;;5079360;28;20063;-61
2023/12/22 00:34:28;;;;;;;24.02;4.93;;;7.80;99.90;;;;;;5079958;28;20047;-61
2023/12/22 00:36:53;;;;;;;26.50;5.80;;;7.80;99.90;;;;;;5080134;28;20119;-61
2023/12/22 00:39:19;;;;;;;38.92;7.28;;;7.80;99.90;;;;;;5078060;28;20115;-61
2023/12/22 00:41:45;;;;;;;24.73;5.57;;;7.40;99.90;;;;;;5077715;28;20488;-61
2023/12/22 00:44:11;;;;;;;28.25;5.70;;;7.20;99.90;;;;;;5079121;28;20052;-60
2023/12/22 00:46:36;;;;;;;23.38;5.93;;;7.20;99.90;;;;;;5076116;28;20032;-61
2023/12/22 00:49:02;;;;;;;21.30;4.85;;;7.30;99.90;;;;;;5059390;28;20040;-60
2023/12/22 00:51:28;;;;;;;19.88;3.92;;;7.40;99.90;;;;;;5077735;28;20047;-61
2023/12/22 00:53:53;;;;;;;22.13;4.28;;;7.40;99.90;;;;;;5080882;28;20036;-60
2023/12/22 00:56:19;;;;;;;24.98;3.92;;;7.40;99.90;;;;;;5076081;28;20036;-61
2023/12/22 00:58:45;;;;;;;26.55;5.45;;;7.40;99.90;;;;;;5075615;28;20085;-61
2023/12/22 01:01:10;;;;;;;21.60;4.50;;;7.40;99.90;;;;;;5055495;28;20032;-59
2023/12/22 01:03:36;;;;;;;18.70;3.45;;;7.50;99.90;;;;;;5075152;28;20052;-60
2023/12/22 01:06:02;;;;;;;12.68;2.92;;;7.30;99.90;;;;;;5074971;28;20044;-60
2023/12/22 01:08:30;;;;;;;16.48;2.78;;;7.10;99.90;;;;;;5078668;28;20071;-61
2023/12/22 01:10:56;;;;;;;17.10;3.17;;;6.90;99.90;;;;;;5079478;28;20435;-61
2023/12/22 01:13:22;;;;;;;19.33;3.45;;;6.90;99.90;;;;;;5080884;28;20562;-60
2023/12/22 01:15:47;;;;;;;21.92;4.25;;;6.90;99.90;;;;;;5073316;28;20059;-61
2023/12/22 01:18:13;;;;;;;22.10;4.22;;;7.00;99.90;;;;;;5058813;28;20519;-60
2023/12/22 01:20:39;;;;;;;20.27;3.97;;;7.00;99.90;;;;;;5063610;28;20097;-61
2023/12/22 01:23:04;;;;;;;17.35;4.15;;;7.20;99.90;;;;;;5083812;28;20515;-61
2023/12/22 01:25:30;;;;;;;25.88;5.18;;;7.30;99.90;;;;;;5081065;28;20149;-60
2023/12/22 01:27:56;;;;;;;31.73;5.68;;;7.30;99.90;;;;;;5067270;28;20048;-61
2023/12/22 01:30:21;;;;;;;22.63;4.95;;;7.40;99.90;;;;;;5085229;28;20067;-61
2023/12/22 01:32:47;;;;;;;24.30;4.63;;;7.40;99.90;;;;;;5081254;28;20054;-60
2023/12/22 01:35:14;;;;;;;23.60;4.22;;;7.50;99.90;;;;;;5081995;28;20071;-61
2023/12/22 01:37:39;;;;;;;26.15;4.50;;;7.40;99.90;;;;;;5085098;28;20504;-59
2023/12/22 01:40:06;;;;;;;29.98;5.13;;;7.50;99.90;;;;;;5084418;28;20042;-61
2023/12/22 01:42:32;;;;;;;20.27;4.60;;;7.40;99.90;;;;;;5084451;28;20123;-60
2023/12/22 01:44:57;;;;;;;28.55;4.72;;;7.40;99.90;;;;;;5084645;28;20126;-61
2023/12/22 01:47:23;;;;;;;29.33;5.53;;;7.40;99.90;;;;;;5081645;28;20071;-60
2023/12/22 01:49:49;;;;;;;27.88;5.70;;;7.30;99.90;;;;;;5080145;28;20058;-60
2023/12/22 01:52:16;;;;;;;29.55;5.70;;;7.30;99.90;;;;;;5078599;28;20050;-60
2023/12/22 01:54:42;;;;;;;28.98;5.20;;;7.30;99.90;;;;;;5085717;28;20094;-60
2023/12/22 01:57:09;;;;;;;35.55;6.15;;;7.30;99.90;;;;;;5063596;28;20048;-61
2023/12/22 01:59:35;;;;;;;21.40;5.22;;;7.40;99.90;;;;;;5063700;28;20674;-61
2023/12/22 02:02:04;;;;;;;24.15;5.20;;;7.50;99.90;;;;;;5083932;28;20109;-60
2023/12/22 02:04:31;;;;;;;25.67;4.22;;;7.50;99.90;;;;;;5083475;28;20119;-61
2023/12/22 02:07:02;;;;;;;26.33;5.30;;;7.40;99.90;;;;;;5085330;28;20492;-61
2023/12/22 02:09:28;;;;;;;21.20;3.50;;;7.40;99.90;;;;;;5077160;28;20033;-61
2023/12/22 02:11:53;;;;;;;15.27;4.10;;;7.50;99.90;;;;;;5082283;28;20040;-60
2023/12/22 02:14:20;;;;;;;10.77;2.10;;;7.40;99.90;;;;;;5096859;28;20425;-61
2023/12/22 02:17:10;;;;;;;13.65;2.92;;;7.30;99.90;;;;;;5084042;28;20162;-60
2023/12/22 02:19:38;;;;;;;17.80;3.13;;;7.30;99.90;;;;;;5099200;27;20134;-59
2023/12/22 02:22:09;;;;;;;17.55;3.55;;;7.30;99.90;;;;;;5075232;28;20647;-61
2023/12/22 02:24:35;;;;;;;23.38;3.25;;;7.30;99.90;;;;;;5082135;28;20413;-61
2023/12/22 02:27:23;;;;;;;19.73;4.13;;;7.40;99.90;;;;;;5080344;28;20045;-60
2023/12/22 02:29:54;;;;;;;20.65;4.18;;;7.60;99.90;;;;;;5059753;28;20090;-60
2023/12/22 02:32:27;;;;;;;12.63;3.25;;;7.70;99.90;;;;;;5079591;28;20451;-61
2023/12/22 02:34:55;;;;;;;17.50;3.80;;;7.60;99.90;;;;;;5066428;28;20101;-61
2023/12/22 02:37:22;;;;;;;10.80;2.17;;;7.50;99.90;;;;;;5083566;28;20221;-60
2023/12/22 02:39:49;;;;;;;14.00;2.95;;;7.30;99.90;;;;;;5080692;28;20044;-59
2023/12/22 02:42:16;;;;;;;15.18;3.13;;;7.30;99.90;;;;;;5079957;28;20040;-61
2023/12/22 02:44:42;;;;;;;13.20;3.38;;;7.20;99.90;;;;;;5085721;28;20221;-61
2023/12/22 02:47:08;;;;;;;10.15;2.17;;;7.20;99.90;;;;;;5079792;28;20055;-61
2023/12/22 02:49:33;;;;;;;15.77;2.38;;;7.10;99.90;;;;;;5079966;28;20153;-60
2023/12/22 02:51:59;;;;;;;16.08;2.75;;;7.10;99.90;;;;;;5084362;28;20135;-61
2023/12/22 02:54:28;;;;;;;14.15;2.53;;;7.20;99.90;;;;;;5084189;28;20489;-61
2023/12/22 02:56:53;;;;;;;13.75;3.67;;;7.10;99.90;;;;;;5078895;28;20052;-61
2023/12/22 02:59:19;;;;;;;20.60;3.63;;;7.10;99.90;;;;;;5064028;28;20067;-61
2023/12/22 03:01:45;;;;;;;19.05;3.67;;;7.20;99.90;;;;;;5063021;28;20068;-60
2023/12/22 03:04:11;;;;;;;21.13;3.80;;;7.20;99.90;;;;;;5082377;28;20032;-61
2023/12/22 03:06:36;;;;;;;23.48;3.55;;;7.10;99.90;;;;;;5082236;28;20436;-61
2023/12/22 03:09:02;;;;;;;21.42;4.03;;;7.20;99.90;;;;;;5079485;28;20462;-60
2023/12/22 03:11:28;;;;;;;26.65;3.97;;;7.20;99.90;;;;;;5082441;28;20044;-61
2023/12/22 03:13:54;;;;;;;22.13;4.05;;;7.20;99.90;;;;;;5078811;28;20074;-61
2023/12/22 03:16:19;;;;;;;18.02;4.13;;;7.20;99.90;;;;;;5084894;28;20054;-60
2023/12/22 03:18:45;;;;;;;22.17;4.85;;;7.20;99.90;;;;;;5076933;28;20085;-60
2023/12/22 03:21:20;;;;;;;24.13;5.03;;;7.20;99.90;;;;;;5081393;28;20039;-60
2023/12/22 03:23:46;;;;;;;18.23;3.95;;;7.20;99.90;;;;;;5079784;28;20081;-60
2023/12/22 03:26:11;;;;;;;42.67;6.93;;;7.20;99.90;;;;;;5063458;28;20660;-61
2023/12/22 03:28:38;;;;;;;24.90;5.00;;;7.20;99.90;;;;;;5081273;28;20073;-60
2023/12/22 03:31:04;;;;;;;22.45;4.78;;;7.30;99.90;;;;;;5082011;28;20054;-61
2023/12/22 03:33:29;;;;;;;26.60;4.47;;;7.40;99.90;;;;;;5077152;28;20569;-61
2023/12/22 03:35:55;;;;;;;24.48;3.92;;;7.40;99.90;;;;;;5062727;28;20493;-60
2023/12/22 03:38:20;;;;;;;24.20;5.18;;;7.50;99.90;;;;;;5077821;28;20525;-61
2023/12/22 03:40:46;;;;;;;19.65;4.75;;;7.60;99.90;;;;;;5064786;28;20038;-61
2023/12/22 03:43:12;;;;;;;27.98;4.43;;;7.70;99.90;;;;;;5063112;28;20640;-61
2023/12/22 03:45:37;;;;;;;21.75;5.50;;;7.60;99.90;;;;;;5075202;28;20028;-61
2023/12/22 03:48:04;;;;;;;19.42;5.45;;;7.60;99.90;;;;;;5081126;28;20096;-61
2023/12/22 03:50:29;;;;;;;22.25;4.72;;;7.70;99.90;;;;;;5076215;28;20412;-61
2023/12/22 03:52:56;;;;;;;26.65;4.57;;;7.70;99.90;;;;;;5061492;28;20050;-61
2023/12/22 03:55:22;;;;;;;22.70;5.28;;;7.80;99.90;;;;;;5081388;28;20472;-61
2023/12/22 03:57:47;;;;;;;21.02;4.65;;;7.80;99.90;;;;;;5081232;28;20413;-60
2023/12/22 04:00:14;;;;;;;22.98;4.10;;;7.70;99.90;;;;;;5080338;28;20262;-60
2023/12/22 04:02:41;;;;;;;23.55;4.82;;;7.70;99.90;;;;;;5077675;28;20558;-61
2023/12/22 04:05:07;;;;;;;19.90;3.88;;;7.70;99.90;;;;;;5078692;28;20594;-61
2023/12/22 04:07:32;;;;;;;25.38;4.15;;;7.70;99.90;;;;;;5062112;28;20036;-60
2023/12/22 04:09:58;;;;;;;22.42;4.32;;;7.80;99.90;;;;;;5081860;28;20048;-60
2023/12/22 04:12:24;;;;;;;29.67;5.13;;;7.80;99.90;;;;;;5076385;28;20050;-61
2023/12/22 04:14:49;;;;;;;35.45;7.80;;;7.80;99.90;;;;;;5079435;28;20039;-61
2023/12/22 04:17:15;;;;;;;27.55;4.88;;;7.80;99.90;;;;;;5077569;28;20046;-61
2023/12/22 04:19:41;;;;;;;21.88;4.85;;;7.80;99.90;;;;;;5077168;28;20044;-61
2023/12/22 04:22:06;;;;;;;23.73;4.30;;;7.90;99.90;;;;;;5080658;28;20074;-61
2023/12/22 04:24:32;;;;;;;19.13;4.90;;;7.80;99.90;;;;;;5075642;28;20066;-60
2023/12/22 04:26:58;;;;;;;17.65;4.32;;;7.90;99.90;;;;;;5079422;28;20036;-61
2023/12/22 04:29:23;;;;;;;24.23;4.55;;;7.90;99.90;;;;;;5079448;28;20051;-59
2023/12/22 04:31:49;;;;;;;20.13;4.25;;;7.90;99.90;;;;;;5072361;28;20566;-62
2023/12/22 04:34:15;;;;;;;24.13;4.78;;;7.90;99.90;;;;;;5079674;28;20032;-59
2023/12/22 04:36:41;;;;;;;22.48;4.30;;;7.90;99.90;;;;;;5075349;28;20256;-61
2023/12/22 04:39:07;;;;;;;24.77;4.32;;;8.00;99.90;;;;;;5075436;28;20416;-61
2023/12/22 04:41:33;;;;;;;25.05;5.68;;;7.90;99.90;;;;;;5062143;28;20111;-61
2023/12/22 04:44:02;;;;;;;21.08;4.40;;;7.90;99.90;;;;;;5077416;28;20578;-60
2023/12/22 04:46:29;;;;;;;24.55;4.30;;;7.90;99.90;;;;;;5080172;28;20048;-61
2023/12/22 04:48:55;;;;;;;24.35;6.00;;;7.90;99.90;;;;;;5083180;28;20062;-60
2023/12/22 04:51:21;;;;;;;26.40;4.43;;;7.80;99.90;;;;;;5083185;28;20493;-61
2023/12/22 04:53:47;;;;;;;25.42;4.82;;;7.90;99.90;;;;;;5079889;28;20119;-61
2023/12/22 04:56:13;;;;;;;16.80;4.00;;;7.90;99.90;;;;;;5076809;28;20500;-61
2023/12/22 04:58:39;;;;;;;24.75;4.65;;;7.90;99.90;;;;;;5062810;28;20045;-60
2023/12/22 05:01:04;;;;;;;22.50;5.50;;;7.90;99.90;;;;;;5075405;28;20098;-61
2023/12/22 05:03:30;;;;;;;17.85;4.28;;;7.90;99.90;;;;;;5062565;28;20047;-60
2023/12/22 05:05:56;;;;;;;22.27;4.53;;;7.90;99.90;;;;;;5064599;28;20036;-61
2023/12/22 05:08:21;;;;;;;24.08;4.78;;;7.90;99.90;;;;;;5075382;28;20387;-60
2023/12/22 05:10:47;;;;;;;20.10;3.70;;;7.90;99.90;;;;;;5077705;28;20033;-61
2023/12/22 05:13:13;;;;;;;21.35;4.47;;;7.90;99.90;;;;;;5074844;28;20139;-62
2023/12/22 05:15:40;;;;;;;26.92;5.05;;;7.90;99.90;;;;;;5079932;28;20109;-61
2023/12/22 05:18:06;;;;;;;20.40;4.68;;;7.90;99.90;;;;;;5077337;28;20055;-59
2023/12/22 05:20:31;;;;;;;33.88;6.38;;;7.90;99.90;;;;;;5080225;28;20042;-61
2023/12/22 05:22:58;;;;;;;20.42;4.50;;;7.90;99.90;;;;;;5074711;28;20036;-60
2023/12/22 05:25:24;;;;;;;23.42;3.90;;;7.90;99.90;;;;;;5078792;28;20087;-60
2023/12/22 05:27:50;;;;;;;26.15;5.47;;;7.90;99.90;;;;;;5080170;28;20075;-61
2023/12/22 05:30:15;;;;;;;22.52;4.60;;;7.90;99.90;;;;;;5076419;28;20717;-61
2023/12/22 05:32:41;;;;;;;22.70;4.95;;;7.90;99.90;;;;;;5061630;28;20040;-61
2023/12/22 05:35:07;;;;;;;22.33;4.30;;;7.90;99.90;;;;;;5064077;28;20048;-60
2023/12/22 05:37:33;;;;;;;25.88;5.03;;;7.90;99.90;;;;;;5059983;28;20390;-61
2023/12/22 05:39:58;;;;;;;17.88;3.58;;;7.90;99.90;;;;;;5059023;28;20069;-60
2023/12/22 05:42:24;;;;;;;21.58;4.15;;;7.90;99.90;;;;;;5060244;28;20045;-60
2023/12/22 05:44:50;;;;;;;20.02;3.60;;;7.90;99.90;;;;;;5063633;28;20040;-60
2023/12/22 05:47:17;;;;;;;17.67;3.17;;;7.90;99.90;;;;;;5079655;28;20836;-61
2023/12/22 05:49:44;;;;;;;16.80;3.50;;;7.90;99.90;;;;;;5075853;28;20047;-61
2023/12/22 05:52:09;;;;;;;20.95;3.67;;;7.90;99.90;;;;;;5077894;28;20654;-60
2023/12/22 05:54:35;;;;;;;22.95;4.40;;;7.90;99.90;;;;;;5077486;28;20044;-59
2023/12/22 05:57:04;;;;;;;16.90;3.22;;;7.90;99.90;;;;;;5081283;28;20471;-60
2023/12/22 05:59:32;;;;;;;16.10;3.13;;;8.00;99.90;;;;;;5061702;28;20043;-60
2023/12/22 06:01:58;;;;;;;23.73;4.15;;;8.00;99.90;;;;;;5078560;28;20093;-61
2023/12/22 06:04:25;;;;;;;18.90;4.35;;;7.90;99.90;;;;;;5080591;28;20077;-61
2023/12/22 06:06:50;;;;;;;22.75;3.85;;;7.90;99.90;;;;;;5062836;28;20048;-61
2023/12/22 06:09:18;;;;;;;19.30;3.95;;;7.90;99.90;;;;;;5061972;28;20636;-61
2023/12/22 06:11:44;;;;;;;26.88;4.03;;;7.90;99.90;;;;;;5079500;28;20509;-61
2023/12/22 06:14:10;;;;;;;21.33;4.15;;;7.90;99.90;;;;;;5084454;28;20047;-61
2023/12/22 06:16:35;;;;;;;22.30;3.72;;;8.00;99.90;;;;;;5079700;28;20389;-61
2023/12/22 06:19:01;;;;;;;16.58;3.83;;;8.00;99.90;;;;;;5077551;28;20040;-61
2023/12/22 06:21:27;;;;;;;18.33;4.50;;;8.00;99.90;;;;;;5062001;28;20046;-60
2023/12/22 06:23:52;;;;;;;16.98;3.42;;;8.00;99.90;;;;;;5078692;28;20047;-61
2023/12/22 06:26:18;;;;;;;17.80;3.55;;;8.00;99.90;;;;;;5083532;28;20058;-61
2023/12/22 06:28:44;;;;;;;16.88;3.92;;;8.00;99.90;;;;;;5061451;28;20055;-61
2023/12/22 06:31:20;;;;;;;14.48;3.70;;;7.90;99.90;;;;;;5075808;28;20663;-60
2023/12/22 06:33:47;;;;;;;20.38;4.05;;;7.90;99.90;;;;;;5080147;28;21731;-60
2023/12/22 06:36:23;;;;;;;20.90;3.28;;;7.90;99.90;;;;;;5079817;28;20069;-60
2023/12/22 06:38:55;;;;;;;20.85;3.88;;;8.00;99.90;;;;;;5062372;28;20113;-61
2023/12/22 06:41:25;;;;;;;23.88;4.80;;;8.00;99.90;;;;;;5077170;28;20053;-61
2023/12/22 06:43:51;;;;;;;17.38;3.45;;;8.00;99.90;;;;;;5081334;28;20404;-61
2023/12/22 06:46:28;;;;;;;18.05;3.38;;;8.00;99.90;;;;;;5078927;28;20040;-61
2023/12/22 06:48:55;;;;;;;18.85;3.33;;;7.90;99.90;;;;;;5078940;28;20036;-60
2023/12/22 06:51:26;;;;;;;24.38;5.22;;;7.90;99.90;;;;;;5078898;28;20493;-60
2023/12/22 06:53:53;;;;;;;20.42;3.65;;;7.90;99.90;;;;;;5079131;28;20039;-61
2023/12/22 06:56:22;;;;;;;21.75;3.75;;;7.90;99.90;;;;;;5066372;28;20043;-60
2023/12/22 06:58:50;;;;;;;18.25;3.55;;;7.90;99.90;;;;;;5058929;28;20048;-61
2023/12/22 07:01:34;;;;;;;20.98;3.88;;;7.90;99.90;;;;;;5076063;28;20242;-60
2023/12/22 07:04:01;;;;;;;19.90;3.85;;;7.90;99.90;;;;;;5079395;28;20051;-60
2023/12/22 07:06:29;;;;;;;21.15;3.83;;;7.90;99.90;;;;;;5062664;28;20043;-60
2023/12/22 07:09:18;;;;;;;20.98;3.53;;;7.80;99.90;;;;;;5048417;28;20097;-60
2023/12/22 07:11:45;;;;;;;16.13;3.38;;;7.80;99.90;;;;;;5074903;28;20424;-60
2023/12/22 07:14:11;;;;;;;19.52;4.13;;;7.80;99.90;;;;;;5073696;28;20075;-59
2023/12/22 07:16:37;;;;;;;13.73;3.15;;;7.80;99.90;;;;;;5079749;28;20090;-61
2023/12/22 07:19:04;;;;;;;13.98;2.90;;;7.90;99.90;;;;;;5074866;28;20032;-61
2023/12/22 07:21:30;;;;;;;19.15;4.40;;;7.90;99.90;;;;;;5079400;28;20067;-60
2023/12/22 07:23:57;;;;;;;20.02;3.72;;;7.90;99.90;;;;;;5077119;28;20244;-61
2023/12/22 07:26:24;;;;;;;23.67;5.03;;;7.90;99.90;;;;;;5081643;28;20044;-61
2023/12/22 07:28:50;;;;;;;20.38;3.17;;;8.00;99.90;;;;;;5062537;28;20044;-61
2023/12/22 07:31:16;;;;;;;27.98;4.68;;;7.90;99.90;;;;;;5077726;28;20038;-61
2023/12/22 07:33:41;;;;;;;22.48;4.30;;;7.90;99.90;;;;;;5062497;28;20032;-61
2023/12/22 07:36:07;;;;;;;21.30;4.10;;;8.00;99.90;;;;;;5074980;28;20164;-61
2023/12/22 07:38:33;;;;;;;15.20;3.20;;;8.00;99.90;;;;;;5074914;28;20047;-61
2023/12/22 07:40:59;;;;;;;25.25;3.83;;;8.00;99.90;;;;;;5063683;28;20047;-59
2023/12/22 07:43:25;;;;;;;28.33;4.32;;;8.00;99.90;;;;;;5063397;28;20444;-59
2023/12/22 07:45:51;;;;;;;21.23;4.50;;;8.10;99.90;;;;;;5043920;28;20082;-60
2023/12/22 07:48:17;;;;;;;18.73;4.93;;;8.10;99.90;;;;;;5044257;28;20074;-60
2023/12/22 07:50:44;;;;;;;18.15;3.90;;;8.10;99.90;;;;;;5046732;28;20036;-60
2023/12/22 07:53:10;;;;;;;16.13;3.13;;;8.20;99.90;;;;;;5081120;28;20078;-60
2023/12/22 07:55:35;;;;;;;25.08;3.55;;;8.20;99.90;;;;;;5064928;28;20063;-60
2023/12/22 07:58:01;;;;;;;21.63;3.40;;;8.10;99.90;;;;;;5083103;28;20044;-60
2023/12/22 08:00:30;;;;;;;13.80;2.63;;;8.10;99.90;;;;;;5040489;28;20291;-60
2023/12/22 08:02:55;;;;;;;10.65;2.35;;;8.10;99.90;;;;;;5078209;28;20056;-59
2023/12/22 08:05:21;;;;;;;13.93;2.42;;;8.00;99.90;;;;;;5063666;28;20054;-60
2023/12/22 08:07:47;;;;;;;10.32;2.65;;;8.00;99.90;;;;;;5061130;28;20524;-60
2023/12/22 08:10:12;;;;;;;6.80;1.92;;;8.00;99.90;;;;;;5080767;28;20033;-60
2023/12/22 08:12:38;;;;;;;10.38;2.08;;;8.00;99.90;;;;;;5064001;28;20040;-60
2023/12/22 08:15:05;;;;;;;7.95;2.05;;;8.00;99.90;;;;;;5063798;28;20032;-60
2023/12/22 08:17:31;;;;;;;11.50;2.00;;;7.90;99.90;;;;;;5078401;28;20263;-60
2023/12/22 08:19:57;;;;;;;10.25;2.08;;;7.90;99.90;;;;;;5045770;28;20205;-60
2023/12/22 08:22:23;;;;;;;12.48;1.92;;;7.80;99.90;;;;;;5079644;28;20532;-60
2023/12/22 08:24:49;;;;;;;6.80;1.92;;;7.70;99.90;;;;;;5061099;28;20029;-60
2023/12/22 08:27:18;;;;;;;11.20;2.45;;;7.60;99.90;;;;;;5070667;28;20105;-60
2023/12/22 08:29:44;;;;;;;11.98;3.28;;;7.60;99.90;;;;;;5077428;28;20039;-60
2023/12/22 08:32:09;;;;;;;8.65;1.38;;;7.60;99.90;;;;;;5078057;28;20131;-60
2023/12/22 08:34:35;;;;;;;9.60;2.00;;;7.50;99.90;;;;;;5080317;28;20040;-59
2023/12/22 08:37:01;;;;;;;10.18;2.38;;;7.50;99.90;;;;;;5072995;28;20093;-60
2023/12/22 08:39:26;;;;;;;12.18;2.17;;;7.50;99.90;;;;;;5058267;28;20402;-60
2023/12/22 08:41:53;;;;;;;10.07;2.00;;;7.50;99.90;;;;;;5062826;28;20039;-60
2023/12/22 08:44:19;;;;;;;15.00;2.13;;;7.40;99.90;;;;;;5078372;28;20047;-60
2023/12/22 08:46:44;;;;;;;10.43;2.13;;;7.40;99.90;;;;;;5064189;28;20044;-60
2023/12/22 08:49:11;;;;;;;16.77;3.45;;;7.40;99.90;;;;;;5068823;28;20108;-60
2023/12/22 08:51:36;;;;;;;10.18;2.33;;;7.40;99.90;;;;;;5068493;28;20060;-60
2023/12/22 08:54:04;;;;;;;13.73;2.80;;;7.40;99.90;;;;;;5073697;28;20040;-60
2023/12/22 08:56:30;;;;;;;11.77;3.03;;;7.50;99.90;;;;;;5077797;28;20047;-60
2023/12/22 08:58:58;;;;;;;17.50;3.38;;;7.50;99.90;;;;;;5077522;28;20048;-60
2023/12/22 09:01:24;;;;;;;11.95;2.92;;;7.50;99.90;;;;;;5074751;28;20138;-61
2023/12/22 09:03:50;;;;;;;16.50;2.90;;;7.50;99.90;;;;;;5073865;28;20044;-59
2023/12/22 09:06:21;;;;;;;14.05;3.20;;;7.40;99.90;;;;;;5071490;28;20032;-60
2023/12/22 09:08:48;;;;;;;17.48;3.47;;;7.40;99.90;;;;;;5054572;28;20052;-60
2023/12/22 09:11:16;;;;;;;20.08;2.80;;;7.50;99.90;;;;;;5055445;28;20373;-60
2023/12/22 09:13:43;;;;;;;17.40;2.75;;;7.40;99.90;;;;;;5056219;28;20109;-60
2023/12/22 09:16:09;;;;;;;14.82;2.35;;;7.50;99.90;;;;;;5072831;28;20048;-59
2023/12/22 09:18:35;;;;;;;14.40;2.45;;;7.50;99.90;;;;;;5073542;28;20757;-60
2023/12/22 09:21:02;;;;;;;13.38;2.92;;;7.60;99.90;;;;;;5077009;28;20043;-60
2023/12/22 09:23:28;;;;;;;14.85;3.28;;;7.70;99.90;;;;;;5078248;28;20048;-60
2023/12/22 09:25:54;;;;;;;14.52;3.03;;;7.70;99.90;;;;;;5078082;28;20046;-60
2023/12/22 09:28:20;;;;;;;15.98;2.90;;;7.70;99.90;;;;;;5076835;28;20044;-60
2023/12/22 09:30:46;;;;;;;14.63;2.70;;;7.80;99.90;;;;;;5058603;28;20316;-60
2023/12/22 09:33:12;;;;;;;17.40;2.72;;;7.80;99.90;;;;;;5074847;28;20054;-60
2023/12/22 09:35:41;;;;;;;17.85;3.47;;;7.80;99.90;;;;;;5054403;28;20097;-60
2023/12/22 09:38:10;;;;;;;17.38;3.75;;;7.80;99.90;;;;;;5061138;28;20052;-60
2023/12/22 09:40:36;;;;;;;16.02;2.67;;;7.80;99.90;;;;;;5072608;28;20460;-61
2023/12/22 09:43:05;;;;;;;13.43;2.53;;;7.80;99.90;;;;;;5081573;28;20500;-60
2023/12/22 09:45:32;;;;;;;14.63;2.85;;;7.80;99.90;;;;;;5074681;28;20387;-60
2023/12/22 09:48:00;;;;;;;18.77;3.65;;;7.90;99.90;;;;;;5066469;28;20036;-61
2023/12/22 09:50:29;;;;;;;13.75;2.85;;;7.90;99.90;;;;;;5085006;28;20036;-60
2023/12/22 09:52:56;;;;;;;17.02;3.72;;;7.90;99.90;;;;;;5081657;28;20048;-60
2023/12/22 09:55:22;;;;;;;13.65;3.67;;;7.90;99.90;;;;;;5081034;28;20491;-60
2023/12/22 09:57:50;;;;;;;15.45;3.28;;;8.00;99.90;;;;;;5078824;28;20404;-60
2023/12/22 10:00:17;;;;;;;17.48;4.15;;;8.00;99.90;;;;;;5084197;28;20055;-60
2023/12/22 10:02:45;;;;;;;17.27;3.88;;;8.10;99.90;;;;;;5076371;28;20040;-60
2023/12/22 10:05:13;;;;;;;15.32;3.08;;;8.10;99.90;;;;;;5086173;28;20044;-60
2023/12/22 10:07:41;;;;;;;16.92;2.90;;;8.10;99.90;;;;;;5085294;28;20221;-60
2023/12/22 10:10:09;;;;;;;15.88;3.30;;;8.10;99.90;;;;;;5067812;28;20102;-60
2023/12/22 10:12:36;;;;;;;15.05;2.85;;;8.10;99.90;;;;;;5065672;28;20044;-60
2023/12/22 10:15:03;;;;;;;13.50;3.22;;;8.20;99.90;;;;;;5067801;28;20044;-60
2023/12/22 10:17:29;;;;;;;15.43;3.53;;;8.20;99.90;;;;;;5081979;28;20066;-60
2023/12/22 10:19:55;;;;;;;16.52;3.38;;;8.20;99.90;;;;;;5076219;28;20526;-60
2023/12/22 10:22:23;;;;;;;18.42;3.22;;;8.20;99.90;;;;;;5066363;28;20044;-60
2023/12/22 10:24:50;;;;;;;17.67;3.20;;;8.20;99.90;;;;;;5072576;28;20489;-60
2023/12/22 10:27:23;;;;;;;15.05;2.83;;;8.20;99.90;;;;;;5076502;28;20036;-60
2023/12/22 10:29:56;;;;;;;14.40;2.75;;;8.20;99.90;;;;;;5075615;28;20040;-60
2023/12/22 10:32:22;;;;;;;16.30;2.70;;;8.30;99.90;;;;;;5095840;28;20105;-60
2023/12/22 10:34:50;;;;;;;16.83;3.15;;;8.30;99.90;;;;;;5075986;28;20306;-60
2023/12/22 10:37:16;;;;;;;23.30;3.38;;;8.30;99.90;;;;;;5075311;28;20393;-60
2023/12/22 10:39:42;;;;;;;16.73;3.40;;;8.30;99.90;;;;;;5080408;28;20032;-60
2023/12/22 10:42:09;;;;;;;22.75;4.15;;;8.30;99.90;;;;;;5063964;28;20515;-60
2023/12/22 10:44:35;;;;;;;16.88;3.10;;;8.40;99.90;;;;;;5079929;28;20047;-60
2023/12/22 10:47:01;;;;;;;16.58;2.63;;;8.40;99.90;;;;;;5077720;28;20040;-60
2023/12/22 10:49:26;;;;;;;14.55;2.70;;;8.30;99.90;;;;;;5067077;28;20043;-60
2023/12/22 10:51:52;;;;;;;19.08;3.17;;;8.40;99.90;;;;;;5078465;28;20051;-60
2023/12/22 10:54:19;;;;;;;18.33;3.55;;;8.40;99.90;;;;;;5061874;28;20050;-62
2023/12/22 10:56:45;;;;;;;13.32;2.47;;;8.40;99.90;;;;;;5064418;28;20043;-60
2023/12/22 10:59:10;;;;;;;13.48;2.78;;;8.40;99.90;;;;;;5062918;28;20047;-60
2023/12/22 11:01:40;;;;;;;13.40;2.65;;;8.40;99.90;;;;;;5078075;28;20036;-59
2023/12/22 11:04:08;;;;;;;15.05;3.05;;;8.50;99.90;;;;;;5081983;28;20051;-60
2023/12/22 11:06:39;;;;;;;16.27;3.10;;;8.50;99.90;;;;;;5083174;28;20067;-60
2023/12/22 11:09:08;;;;;;;18.58;2.80;;;8.50;99.90;;;;;;5077731;28;20040;-60
2023/12/22 11:11:36;;;;;;;17.42;2.72;;;8.50;99.90;;;;;;5080750;28;20051;-61
2023/12/22 11:14:02;;;;;;;22.55;4.35;;;8.60;99.90;;;;;;5060950;28;20048;-60
2023/12/22 11:16:29;;;;;;;15.82;2.50;;;8.50;99.90;;;;;;5083716;28;20450;-60
2023/12/22 11:18:56;;;;;;;15.48;3.70;;;8.50;99.90;;;;;;5082238;28;20461;-60
2023/12/22 11:21:23;;;;;;;18.52;3.33;;;8.50;99.90;;;;;;5067781;28;20420;-60
2023/12/22 11:23:53;;;;;;;13.30;2.88;;;8.60;99.90;;;;;;5080737;28;20073;-61
2023/12/22 11:26:21;;;;;;;18.83;3.15;;;8.60;99.90;;;;;;5062984;28;20485;-60
2023/12/22 11:28:48;;;;;;;11.15;2.50;;;8.60;99.90;;;;;;5079879;28;20047;-60
2023/12/22 11:31:15;;;;;;;12.85;2.90;;;8.60;99.90;;;;;;5094162;28;20044;-60
2023/12/22 11:33:48;;;;;;;14.57;3.70;;;8.60;99.90;;;;;;5081708;28;20118;-61
2023/12/22 11:36:15;;;;;;;16.52;3.17;;;8.60;99.90;;;;;;5078797;28;20039;-60
2023/12/22 11:38:43;;;;;;;16.05;2.97;;;8.60;99.90;;;;;;5063548;28;20108;-60
2023/12/22 11:41:22;;;;;;;17.13;2.88;;;8.70;99.90;;;;;;5078628;28;20050;-60
2023/12/22 11:43:49;;;;;;;13.93;3.10;;;8.60;99.90;;;;;;5062693;28;20052;-61
2023/12/22 11:46:18;;;;;;;16.75;3.50;;;8.60;99.90;;;;;;5075182;28;20429;-60
2023/12/22 11:48:48;;;;;;;17.05;2.55;;;8.60;99.90;;;;;;5078255;28;20358;-61
2023/12/22 11:51:15;;;;;;;20.33;2.85;;;8.60;99.90;;;;;;5099087;28;20035;-60
2023/12/22 11:53:41;;;;;;;18.00;4.18;;;8.60;99.90;;;;;;5074115;28;20406;-60
2023/12/22 11:56:09;;;;;;;18.98;3.17;;;8.60;99.90;;;;;;5076103;28;20055;-60
2023/12/22 11:58:35;;;;;;;24.40;3.42;;;8.60;99.90;;;;;;5078799;28;20143;-60
2023/12/22 12:01:03;;;;;;;15.20;2.72;;;8.60;99.90;;;;;;5080484;28;20083;-60
2023/12/22 12:03:31;;;;;;;13.85;2.40;;;8.60;99.90;;;;;;5063067;28;20039;-60
2023/12/22 12:06:16;;;;;;;12.77;2.67;;;8.60;99.90;;;;;;5079304;28;20093;-60
2023/12/22 12:08:43;;;;;;;15.23;3.00;;;8.60;99.90;;;;;;5059836;28;20382;-60
2023/12/22 12:11:09;;;;;;;16.48;2.63;;;8.60;99.90;;;;;;5074880;28;20137;-62
2023/12/22 12:13:41;;;;;;;15.77;2.63;;;8.60;99.90;;;;;;5084232;28;20552;-60
2023/12/22 12:16:07;;;;;;;16.67;3.17;;;8.60;99.90;;;;;;5079795;28;20046;-60
2023/12/22 12:18:34;;;;;;;14.10;2.75;;;8.60;99.90;;;;;;5079157;28;20123;-60
2023/12/22 12:21:00;;;;;;;10.90;2.72;;;8.60;99.90;;;;;;5081265;28;20040;-60
2023/12/22 12:23:29;;;;;;;14.32;2.33;;;8.60;99.90;;;;;;5066773;28;20596;-60
2023/12/22 12:25:55;;;;;;;15.80;3.28;;;8.60;99.90;;;;;;5097427;28;20084;-60
2023/12/22 12:28:32;;;;;;;14.88;2.15;;;8.60;99.90;;;;;;5081274;28;20085;-60
2023/12/22 12:31:05;;;;;;;18.77;2.83;;;8.50;99.90;;;;;;5080455;28;20044;-60
2023/12/22 12:33:32;;;;;;;14.20;2.50;;;8.50;99.90;;;;;;5081421;28;20032;-60
2023/12/22 12:35:59;;;;;;;13.45;2.15;;;8.40;99.90;;;;;;5062506;28;20741;-60
2023/12/22 12:38:37;;;;;;;9.85;2.03;;;8.40;99.90;;;;;;5076484;28;20047;-60
2023/12/22 12:41:05;;;;;;;17.60;2.90;;;8.30;99.90;;;;;;5077151;28;20036;-60
2023/12/22 12:43:32;;;;;;;12.93;2.13;;;8.30;99.90;;;;;;5065793;28;20051;-61
2023/12/22 12:46:05;;;;;;;13.35;2.78;;;8.30;99.90;;;;;;5078116;28;20037;-60